sensor_id;sensor_type;location;lat;lon;timestamp;pressure;altitude;pressure_sealevel;temperature;humidity
3544;BME280;1786;52.870;9.578;2024-03-08T00:02:19;101323.94;;;7.42;58.14
3544;BME280;1786;52.870;9.578;2024-03-08T00:04:45;101323.69;;;7.48;58.21
3544;BME280;1786;52.870;9.578;2024-03-08T00:07:12;101334.41;;;7.65;57.81
3544;BME280;1786;52.870;9.578;2024-03-08T00:09:40;101333.25;;;7.72;57.49
3544;BME280;1786;52.870;9.578;2024-03-08T00:12:07;101329.22;;;7.86;57.19
3544;BME280;1786;52.870;9.578;2024-03-08T00:14:34;101326.31;;;7.48;57.86
3544;BME280;1786;52.870;9.578;2024-03-08T00:17:01;101322.63;;;7.53;57.81
3544;BME280;1786;52.870;9.578;2024-03-08T00:19:28;101323.34;;;7.57;57.51
3544;BME280;1786;52.870;9.578;2024-03-08T00:21:55;101318.91;;;7.35;58.06
3544;BME280;1786;52.870;9.578;2024-03-08T00:24:21;101320.13;;;7.72;57.29
3544;BME280;1786;52.870;9.578;2024-03-08T00:26:51;101329.41;;;7.59;57.25
3544;BME280;1786;52.870;9.578;2024-03-08T00:29:20;101314.69;;;7.31;58.17
3544;BME280;1786;52.870;9.578;2024-03-08T00:31:48;101319.16;;;7.29;58.18
3544;BME280;1786;52.870;9.578;2024-03-08T00:34:16;101326.34;;;7.70;57.17
3544;BME280;1786;52.870;9.578;2024-03-08T00:36:43;101327.75;;;7.78;56.75
3544;BME280;1786;52.870;9.578;2024-03-08T00:39:10;101322.28;;;7.39;57.78
3544;BME280;1786;52.870;9.578;2024-03-08T00:41:38;101321.81;;;7.51;57.75
3544;BME280;1786;52.870;9.578;2024-03-08T00:44:05;101320.00;;;7.30;58.04
3544;BME280;1786;52.870;9.578;2024-03-08T00:46:31;101318.00;;;7.36;57.65
3544;BME280;1786;52.870;9.578;2024-03-08T00:48:58;101313.16;;;7.26;58.05
3544;BME280;1786;52.870;9.578;2024-03-08T00:51:25;101305.97;;;7.31;58.12
3544;BME280;1786;52.870;9.578;2024-03-08T00:53:51;101309.47;;;7.30;58.05
3544;BME280;1786;52.870;9.578;2024-03-08T00:56:18;101306.97;;;7.72;57.20
3544;BME280;1786;52.870;9.578;2024-03-08T00:58:45;101313.00;;;7.52;57.24
3544;BME280;1786;52.870;9.578;2024-03-08T01:01:13;101306.56;;;7.37;57.43
3544;BME280;1786;52.870;9.578;2024-03-08T01:03:45;101301.69;;;7.28;57.61
3544;BME280;1786;52.870;9.578;2024-03-08T01:06:11;101309.66;;;7.49;57.41
3544;BME280;1786;52.870;9.578;2024-03-08T01:08:38;101307.84;;;7.04;58.47
3544;BME280;1786;52.870;9.578;2024-03-08T01:11:08;101304.00;;;7.58;57.45
3544;BME280;1786;52.870;9.578;2024-03-08T01:13:35;101300.31;;;7.40;57.51
3544;BME280;1786;52.870;9.578;2024-03-08T01:16:02;101295.84;;;7.20;58.04
3544;BME280;1786;52.870;9.578;2024-03-08T01:18:29;101301.31;;;7.37;57.93
3544;BME280;1786;52.870;9.578;2024-03-08T01:20:56;101290.34;;;7.03;58.43
3544;BME280;1786;52.870;9.578;2024-03-08T01:23:23;101284.50;;;7.18;58.18
3544;BME280;1786;52.870;9.578;2024-03-08T01:25:50;101279.50;;;6.88;58.74
3544;BME280;1786;52.870;9.578;2024-03-08T01:28:24;101275.25;;;6.61;59.08
3544;BME280;1786;52.870;9.578;2024-03-08T01:30:51;101271.44;;;6.69;59.53
3544;BME280;1786;52.870;9.578;2024-03-08T01:33:23;101266.50;;;7.09;58.78
3544;BME280;1786;52.870;9.578;2024-03-08T01:35:51;101262.81;;;6.89;59.21
3544;BME280;1786;52.870;9.578;2024-03-08T01:38:18;101258.88;;;6.78;59.07
3544;BME280;1786;52.870;9.578;2024-03-08T01:40:45;101254.50;;;6.78;59.20
3544;BME280;1786;52.870;9.578;2024-03-08T01:43:25;101258.25;;;6.71;59.68
3544;BME280;1786;52.870;9.578;2024-03-08T01:45:54;101243.63;;;6.64;59.67
3544;BME280;1786;52.870;9.578;2024-03-08T01:48:21;101248.44;;;7.00;59.45
3544;BME280;1786;52.870;9.578;2024-03-08T01:50:51;101238.75;;;6.78;59.77
3544;BME280;1786;52.870;9.578;2024-03-08T01:53:18;101236.50;;;6.67;60.05
3544;BME280;1786;52.870;9.578;2024-03-08T01:55:47;101230.97;;;6.75;59.98
3544;BME280;1786;52.870;9.578;2024-03-08T01:58:14;101235.06;;;6.82;59.88
3544;BME280;1786;52.870;9.578;2024-03-08T02:00:47;101227.06;;;6.62;60.16
3544;BME280;1786;52.870;9.578;2024-03-08T02:03:16;101230.97;;;6.99;59.13
3544;BME280;1786;52.870;9.578;2024-03-08T02:05:43;101224.97;;;6.71;59.98
3544;BME280;1786;52.870;9.578;2024-03-08T02:08:12;101221.47;;;6.94;59.41
3544;BME280;1786;52.870;9.578;2024-03-08T02:10:46;101220.25;;;6.81;59.42
3544;BME280;1786;52.870;9.578;2024-03-08T02:13:12;101223.84;;;6.79;59.68
3544;BME280;1786;52.870;9.578;2024-03-08T02:15:58;101215.09;;;7.02;59.01
3544;BME280;1786;52.870;9.578;2024-03-08T02:18:29;101211.88;;;6.70;59.60
3544;BME280;1786;52.870;9.578;2024-03-08T02:20:58;101213.25;;;7.04;58.82
3544;BME280;1786;52.870;9.578;2024-03-08T02:23:26;101211.91;;;6.93;59.03
3544;BME280;1786;52.870;9.578;2024-03-08T02:25:54;101217.41;;;7.09;58.72
3544;BME280;1786;52.870;9.578;2024-03-08T02:28:21;101203.25;;;6.68;59.57
3544;BME280;1786;52.870;9.578;2024-03-08T02:30:51;101198.72;;;6.71;59.43
3544;BME280;1786;52.870;9.578;2024-03-08T02:33:22;101199.78;;;6.89;59.10
3544;BME280;1786;52.870;9.578;2024-03-08T02:35:50;101201.69;;;7.08;58.55
3544;BME280;1786;52.870;9.578;2024-03-08T02:38:19;101196.63;;;7.25;58.39
3544;BME280;1786;52.870;9.578;2024-03-08T02:40:47;101200.03;;;7.05;58.66
3544;BME280;1786;52.870;9.578;2024-03-08T02:43:15;101193.72;;;6.87;59.31
3544;BME280;1786;52.870;9.578;2024-03-08T02:45:42;101190.34;;;6.37;59.99
3544;BME280;1786;52.870;9.578;2024-03-08T02:48:08;101189.88;;;6.74;59.70
3544;BME280;1786;52.870;9.578;2024-03-08T02:50:35;101189.38;;;6.39;60.45
3544;BME280;1786;52.870;9.578;2024-03-08T02:53:03;101183.19;;;6.42;60.14
3544;BME280;1786;52.870;9.578;2024-03-08T02:55:30;101182.97;;;6.48;60.33
3544;BME280;1786;52.870;9.578;2024-03-08T02:57:57;101183.81;;;6.48;60.62
3544;BME280;1786;52.870;9.578;2024-03-08T03:00:23;101175.75;;;6.04;61.53
3544;BME280;1786;52.870;9.578;2024-03-08T03:02:51;101173.47;;;5.95;61.72
3544;BME280;1786;52.870;9.578;2024-03-08T03:05:21;101171.56;;;6.24;61.29
3544;BME280;1786;52.870;9.578;2024-03-08T03:07:47;101176.78;;;6.49;60.44
3544;BME280;1786;52.870;9.578;2024-03-08T03:10:16;101173.53;;;6.66;60.14
3544;BME280;1786;52.870;9.578;2024-03-08T03:12:44;101169.19;;;6.65;59.94
3544;BME280;1786;52.870;9.578;2024-03-08T03:15:12;101174.50;;;6.87;59.45
3544;BME280;1786;52.870;9.578;2024-03-08T03:17:40;101169.19;;;6.41;60.46
3544;BME280;1786;52.870;9.578;2024-03-08T03:20:07;101166.28;;;6.49;60.54
3544;BME280;1786;52.870;9.578;2024-03-08T03:22:40;101168.16;;;6.22;61.28
3544;BME280;1786;52.870;9.578;2024-03-08T03:25:08;101158.88;;;6.12;61.17
3544;BME280;1786;52.870;9.578;2024-03-08T03:27:36;101160.72;;;6.10;61.38
3544;BME280;1786;52.870;9.578;2024-03-08T03:30:04;101173.72;;;6.61;60.31
3544;BME280;1786;52.870;9.578;2024-03-08T03:32:48;101161.44;;;6.38;60.65
3544;BME280;1786;52.870;9.578;2024-03-08T03:35:19;101169.66;;;6.53;60.35
3544;BME280;1786;52.870;9.578;2024-03-08T03:37:47;101162.38;;;6.61;60.16
3544;BME280;1786;52.870;9.578;2024-03-08T03:40:34;101170.41;;;6.56;60.24
3544;BME280;1786;52.870;9.578;2024-03-08T03:43:02;101162.47;;;6.58;60.22
3544;BME280;1786;52.870;9.578;2024-03-08T03:45:32;101152.16;;;6.53;60.04
3544;BME280;1786;52.870;9.578;2024-03-08T03:48:04;101152.75;;;6.60;60.26
3544;BME280;1786;52.870;9.578;2024-03-08T03:50:32;101148.25;;;6.63;59.67
3544;BME280;1786;52.870;9.578;2024-03-08T03:53:02;101141.69;;;6.52;60.42
3544;BME280;1786;52.870;9.578;2024-03-08T03:55:29;101148.53;;;6.79;60.01
3544;BME280;1786;52.870;9.578;2024-03-08T03:57:56;101144.97;;;6.58;60.07
3544;BME280;1786;52.870;9.578;2024-03-08T04:00:22;101142.56;;;6.28;60.99
3544;BME280;1786;52.870;9.578;2024-03-08T04:02:49;101140.03;;;6.49;60.53
3544;BME280;1786;52.870;9.578;2024-03-08T04:05:17;101145.00;;;6.33;60.98
3544;BME280;1786;52.870;9.578;2024-03-08T04:07:44;101144.88;;;6.60;60.42
3544;BME280;1786;52.870;9.578;2024-03-08T04:10:11;101144.78;;;6.63;59.99
3544;BME280;1786;52.870;9.578;2024-03-08T04:12:38;101139.75;;;6.33;61.01
3544;BME280;1786;52.870;9.578;2024-03-08T04:15:05;101143.06;;;6.38;61.17
3544;BME280;1786;52.870;9.578;2024-03-08T04:17:34;101139.81;;;6.32;61.18
3544;BME280;1786;52.870;9.578;2024-03-08T04:20:04;101135.00;;;6.66;60.54
3544;BME280;1786;52.870;9.578;2024-03-08T04:22:36;101130.69;;;6.42;60.97
3544;BME280;1786;52.870;9.578;2024-03-08T04:25:04;101140.66;;;6.32;61.08
3544;BME280;1786;52.870;9.578;2024-03-08T04:27:32;101126.06;;;6.48;60.88
3544;BME280;1786;52.870;9.578;2024-03-08T04:30:00;101127.88;;;6.46;60.80
3544;BME280;1786;52.870;9.578;2024-03-08T04:32:27;101126.72;;;6.06;61.93
3544;BME280;1786;52.870;9.578;2024-03-08T04:34:55;101125.28;;;6.23;61.60
3544;BME280;1786;52.870;9.578;2024-03-08T04:37:23;101123.91;;;6.13;61.87
3544;BME280;1786;52.870;9.578;2024-03-08T04:39:49;101126.97;;;6.24;61.50
3544;BME280;1786;52.870;9.578;2024-03-08T04:42:16;101124.50;;;6.66;60.50
3544;BME280;1786;52.870;9.578;2024-03-08T04:44:45;101123.88;;;6.83;59.82
3544;BME280;1786;52.870;9.578;2024-03-08T04:47:12;101127.84;;;6.93;60.06
3544;BME280;1786;52.870;9.578;2024-03-08T04:49:39;101130.47;;;6.70;60.34
3544;BME280;1786;52.870;9.578;2024-03-08T04:52:05;101131.56;;;6.88;60.05
3544;BME280;1786;52.870;9.578;2024-03-08T04:54:33;101125.00;;;6.76;60.23
3544;BME280;1786;52.870;9.578;2024-03-08T04:57:00;101118.66;;;6.36;61.19
3544;BME280;1786;52.870;9.578;2024-03-08T04:59:32;101121.72;;;6.47;60.78
3544;BME280;1786;52.870;9.578;2024-03-08T05:01:59;101117.97;;;6.31;61.08
3544;BME280;1786;52.870;9.578;2024-03-08T05:04:26;101123.34;;;6.28;61.72
3544;BME280;1786;52.870;9.578;2024-03-08T05:06:53;101123.28;;;6.75;59.95
3544;BME280;1786;52.870;9.578;2024-03-08T05:09:20;101124.88;;;6.79;60.05
3544;BME280;1786;52.870;9.578;2024-03-08T05:11:47;101120.91;;;6.69;60.16
3544;BME280;1786;52.870;9.578;2024-03-08T05:14:14;101119.75;;;6.31;60.90
3544;BME280;1786;52.870;9.578;2024-03-08T05:16:47;101111.22;;;6.24;61.37
3544;BME280;1786;52.870;9.578;2024-03-08T05:19:19;101113.13;;;6.20;61.18
3544;BME280;1786;52.870;9.578;2024-03-08T05:21:47;101110.94;;;5.83;62.12
3544;BME280;1786;52.870;9.578;2024-03-08T05:24:15;101111.91;;;6.53;60.79
3544;BME280;1786;52.870;9.578;2024-03-08T05:26:46;101116.47;;;6.47;60.46
3544;BME280;1786;52.870;9.578;2024-03-08T05:29:13;101119.97;;;6.48;60.37
3544;BME280;1786;52.870;9.578;2024-03-08T05:31:47;101112.63;;;6.09;61.47
3544;BME280;1786;52.870;9.578;2024-03-08T05:34:15;101118.53;;;6.39;60.60
3544;BME280;1786;52.870;9.578;2024-03-08T05:36:42;101113.16;;;6.66;60.19
3544;BME280;1786;52.870;9.578;2024-03-08T05:39:11;101111.34;;;6.68;59.78
3544;BME280;1786;52.870;9.578;2024-03-08T05:41:38;101115.91;;;6.16;60.79
3544;BME280;1786;52.870;9.578;2024-03-08T05:44:06;101115.44;;;6.52;60.06
3544;BME280;1786;52.870;9.578;2024-03-08T05:46:33;101100.66;;;6.02;61.00
3544;BME280;1786;52.870;9.578;2024-03-08T05:49:00;101108.44;;;6.28;60.67
3544;BME280;1786;52.870;9.578;2024-03-08T05:51:26;101108.75;;;6.66;59.72
3544;BME280;1786;52.870;9.578;2024-03-08T05:53:53;101111.03;;;6.30;60.13
3544;BME280;1786;52.870;9.578;2024-03-08T05:56:23;101101.19;;;6.12;60.86
3544;BME280;1786;52.870;9.578;2024-03-08T05:58:50;101100.38;;;6.10;61.17
3544;BME280;1786;52.870;9.578;2024-03-08T06:01:16;101100.16;;;6.39;60.32
3544;BME280;1786;52.870;9.578;2024-03-08T06:03:43;101100.78;;;6.46;59.90
3544;BME280;1786;52.870;9.578;2024-03-08T06:06:12;101096.84;;;6.34;60.19
3544;BME280;1786;52.870;9.578;2024-03-08T06:08:40;101096.50;;;6.43;59.96
3544;BME280;1786;52.870;9.578;2024-03-08T06:11:06;101098.19;;;6.22;60.37
3544;BME280;1786;52.870;9.578;2024-03-08T06:13:33;101098.78;;;6.29;60.63
3544;BME280;1786;52.870;9.578;2024-03-08T06:16:03;101100.91;;;6.43;60.32
3544;BME280;1786;52.870;9.578;2024-03-08T06:18:31;101099.75;;;6.26;60.39
3544;BME280;1786;52.870;9.578;2024-03-08T06:20:58;101089.66;;;6.39;60.20
3544;BME280;1786;52.870;9.578;2024-03-08T06:23:24;101097.03;;;6.75;59.72
3544;BME280;1786;52.870;9.578;2024-03-08T06:25:51;101098.50;;;6.60;59.90
3544;BME280;1786;52.870;9.578;2024-03-08T06:28:17;101089.81;;;7.02;58.76
3544;BME280;1786;52.870;9.578;2024-03-08T06:30:44;101084.81;;;6.96;58.56
3544;BME280;1786;52.870;9.578;2024-03-08T06:33:11;101092.00;;;7.13;58.72
3544;BME280;1786;52.870;9.578;2024-03-08T06:35:37;101091.41;;;7.69;58.17
3544;BME280;1786;52.870;9.578;2024-03-08T06:38:04;101092.19;;;8.88;55.47
3544;BME280;1786;52.870;9.578;2024-03-08T06:40:31;101089.56;;;9.75;53.08
3544;BME280;1786;52.870;9.578;2024-03-08T06:42:58;101089.19;;;10.65;50.81
3544;BME280;1786;52.870;9.578;2024-03-08T06:45:24;101091.41;;;11.04;49.67
3544;BME280;1786;52.870;9.578;2024-03-08T06:47:52;101094.00;;;12.09;47.37
3544;BME280;1786;52.870;9.578;2024-03-08T06:50:19;101099.19;;;12.54;46.47
3544;BME280;1786;52.870;9.578;2024-03-08T06:52:45;101096.97;;;13.02;45.79
3544;BME280;1786;52.870;9.578;2024-03-08T06:55:17;101099.00;;;13.26;44.18
3544;BME280;1786;52.870;9.578;2024-03-08T06:57:43;101099.59;;;13.44;44.33
3544;BME280;1786;52.870;9.578;2024-03-08T07:00:11;101105.28;;;13.90;43.73
3544;BME280;1786;52.870;9.578;2024-03-08T07:02:44;101112.88;;;14.59;42.55
3544;BME280;1786;52.870;9.578;2024-03-08T07:05:20;101109.50;;;14.57;42.61
3544;BME280;1786;52.870;9.578;2024-03-08T07:07:47;101110.50;;;15.28;41.90
3544;BME280;1786;52.870;9.578;2024-03-08T07:10:17;101105.53;;;15.58;40.26
3544;BME280;1786;52.870;9.578;2024-03-08T07:12:45;101116.09;;;16.18;39.73
3544;BME280;1786;52.870;9.578;2024-03-08T07:15:13;101108.69;;;15.28;40.49
3544;BME280;1786;52.870;9.578;2024-03-08T07:17:40;101119.09;;;16.58;38.93
3544;BME280;1786;52.870;9.578;2024-03-08T07:20:08;101118.47;;;16.77;38.95
3544;BME280;1786;52.870;9.578;2024-03-08T07:22:38;101115.59;;;16.13;38.98
3544;BME280;1786;52.870;9.578;2024-03-08T07:25:06;101115.09;;;16.64;39.10
3544;BME280;1786;52.870;9.578;2024-03-08T07:27:48;101129.75;;;16.92;38.32
3544;BME280;1786;52.870;9.578;2024-03-08T07:30:15;101116.31;;;16.71;38.38
3544;BME280;1786;52.870;9.578;2024-03-08T07:33:01;101116.06;;;15.60;39.41
3544;BME280;1786;52.870;9.578;2024-03-08T07:35:29;101108.53;;;15.19;39.71
3544;BME280;1786;52.870;9.578;2024-03-08T07:37:56;101098.13;;;15.27;40.21
3544;BME280;1786;52.870;9.578;2024-03-08T07:40:22;101093.16;;;16.04;39.41
3544;BME280;1786;52.870;9.578;2024-03-08T07:42:49;101109.03;;;16.62;38.21
3544;BME280;1786;52.870;9.578;2024-03-08T07:45:16;101098.22;;;16.86;38.51
3544;BME280;1786;52.870;9.578;2024-03-08T07:47:43;101097.59;;;16.94;36.96
3544;BME280;1786;52.870;9.578;2024-03-08T07:50:10;101098.56;;;16.93;37.48
3544;BME280;1786;52.870;9.578;2024-03-08T07:52:37;101107.19;;;16.62;37.90
3544;BME280;1786;52.870;9.578;2024-03-08T07:55:03;101090.91;;;16.88;38.63
3544;BME280;1786;52.870;9.578;2024-03-08T07:57:30;101098.09;;;17.94;36.92
3544;BME280;1786;52.870;9.578;2024-03-08T07:59:57;101105.16;;;16.66;37.54
3544;BME280;1786;52.870;9.578;2024-03-08T08:02:24;101095.44;;;15.51;39.58
3544;BME280;1786;52.870;9.578;2024-03-08T08:04:51;101090.59;;;16.81;38.04
3544;BME280;1786;52.870;9.578;2024-03-08T08:07:17;101096.53;;;17.49;36.92
3544;BME280;1786;52.870;9.578;2024-03-08T08:09:44;101093.28;;;17.14;37.08
3544;BME280;1786;52.870;9.578;2024-03-08T08:12:11;101089.13;;;16.89;37.42
3544;BME280;1786;52.870;9.578;2024-03-08T08:14:38;101079.03;;;17.66;37.09
3544;BME280;1786;52.870;9.578;2024-03-08T08:17:05;101071.22;;;17.33;37.00
3544;BME280;1786;52.870;9.578;2024-03-08T08:19:35;101082.84;;;17.85;37.01
3544;BME280;1786;52.870;9.578;2024-03-08T08:22:05;101082.84;;;17.85;36.35
3544;BME280;1786;52.870;9.578;2024-03-08T08:24:35;101080.63;;;17.90;37.09
3544;BME280;1786;52.870;9.578;2024-03-08T08:27:04;101078.47;;;18.45;36.71
3544;BME280;1786;52.870;9.578;2024-03-08T08:29:30;101081.81;;;18.97;36.19
3544;BME280;1786;52.870;9.578;2024-03-08T08:32:00;101089.19;;;19.73;34.43
3544;BME280;1786;52.870;9.578;2024-03-08T08:34:29;101085.94;;;18.51;35.55
3544;BME280;1786;52.870;9.578;2024-03-08T08:36:56;101082.44;;;17.26;37.00
3544;BME280;1786;52.870;9.578;2024-03-08T08:39:23;101085.41;;;18.57;35.36
3544;BME280;1786;52.870;9.578;2024-03-08T08:41:52;101077.13;;;18.20;35.59
3544;BME280;1786;52.870;9.578;2024-03-08T08:44:21;101076.78;;;18.13;35.82
3544;BME280;1786;52.870;9.578;2024-03-08T08:46:49;101071.66;;;18.31;36.28
3544;BME280;1786;52.870;9.578;2024-03-08T08:49:18;101072.78;;;17.98;36.07
3544;BME280;1786;52.870;9.578;2024-03-08T08:51:50;101073.34;;;16.85;37.09
3544;BME280;1786;52.870;9.578;2024-03-08T08:54:18;101066.63;;;16.36;37.55
3544;BME280;1786;52.870;9.578;2024-03-08T08:56:45;101055.63;;;16.84;38.30
3544;BME280;1786;52.870;9.578;2024-03-08T08:59:12;101061.88;;;15.84;38.94
3544;BME280;1786;52.870;9.578;2024-03-08T09:01:46;101052.50;;;15.67;39.56
3544;BME280;1786;52.870;9.578;2024-03-08T09:04:17;101044.81;;;16.20;39.17
3544;BME280;1786;52.870;9.578;2024-03-08T09:06:44;101045.28;;;16.36;38.08
3544;BME280;1786;52.870;9.578;2024-03-08T09:09:11;101038.16;;;16.03;38.59
3544;BME280;1786;52.870;9.578;2024-03-08T09:11:39;101034.03;;;15.88;39.62
3544;BME280;1786;52.870;9.578;2024-03-08T09:14:09;101027.13;;;15.74;39.06
3544;BME280;1786;52.870;9.578;2024-03-08T09:16:39;101023.72;;;16.17;38.96
3544;BME280;1786;52.870;9.578;2024-03-08T09:19:05;101024.59;;;16.72;38.03
3544;BME280;1786;52.870;9.578;2024-03-08T09:21:33;101019.53;;;17.01;37.16
3544;BME280;1786;52.870;9.578;2024-03-08T09:24:01;101015.00;;;16.70;38.55
3544;BME280;1786;52.870;9.578;2024-03-08T09:26:28;101016.44;;;16.19;38.54
3544;BME280;1786;52.870;9.578;2024-03-08T09:28:55;101009.66;;;16.26;38.60
3544;BME280;1786;52.870;9.578;2024-03-08T09:31:22;101008.94;;;16.01;39.76
3544;BME280;1786;52.870;9.578;2024-03-08T09:33:49;101015.81;;;15.59;39.16
3544;BME280;1786;52.870;9.578;2024-03-08T09:36:17;101000.84;;;15.23;40.17
3544;BME280;1786;52.870;9.578;2024-03-08T09:38:44;101001.44;;;15.26;39.37
3544;BME280;1786;52.870;9.578;2024-03-08T09:41:11;101006.47;;;14.35;40.77
3544;BME280;1786;52.870;9.578;2024-03-08T09:43:38;100990.81;;;14.43;41.56
3544;BME280;1786;52.870;9.578;2024-03-08T09:46:06;100992.47;;;14.81;39.94
3544;BME280;1786;52.870;9.578;2024-03-08T09:48:34;100977.84;;;15.22;40.14
3544;BME280;1786;52.870;9.578;2024-03-08T09:51:03;100978.63;;;14.64;40.76
3544;BME280;1786;52.870;9.578;2024-03-08T09:53:30;100974.31;;;14.75;40.87
3544;BME280;1786;52.870;9.578;2024-03-08T09:55:57;100980.53;;;15.33;40.40
3544;BME280;1786;52.870;9.578;2024-03-08T09:58:23;100964.81;;;14.59;40.33
3544;BME280;1786;52.870;9.578;2024-03-08T10:01:00;100979.22;;;14.07;41.65
3544;BME280;1786;52.870;9.578;2024-03-08T10:03:31;100962.19;;;13.34;42.63
3544;BME280;1786;52.870;9.578;2024-03-08T10:06:01;100954.19;;;13.73;42.39
3544;BME280;1786;52.870;9.578;2024-03-08T10:08:28;100955.22;;;13.96;41.79
3544;BME280;1786;52.870;9.578;2024-03-08T10:10:56;100954.16;;;13.85;41.69
3544;BME280;1786;52.870;9.578;2024-03-08T10:13:25;100936.59;;;14.09;41.91
3544;BME280;1786;52.870;9.578;2024-03-08T10:15:54;100941.75;;;14.47;40.31
3544;BME280;1786;52.870;9.578;2024-03-08T10:18:21;100952.53;;;13.59;41.68
3544;BME280;1786;52.870;9.578;2024-03-08T10:21:02;100935.56;;;13.36;42.61
3544;BME280;1786;52.870;9.578;2024-03-08T10:23:31;100929.84;;;12.89;42.70
3544;BME280;1786;52.870;9.578;2024-03-08T10:26:09;100937.50;;;13.71;42.55
3544;BME280;1786;52.870;9.578;2024-03-08T10:28:36;100931.47;;;13.81;41.94
3544;BME280;1786;52.870;9.578;2024-03-08T10:31:03;100927.22;;;13.79;41.94
3544;BME280;1786;52.870;9.578;2024-03-08T10:33:30;100916.63;;;13.66;42.13
3544;BME280;1786;52.870;9.578;2024-03-08T10:35:57;100925.69;;;13.88;42.17
3544;BME280;1786;52.870;9.578;2024-03-08T10:38:25;100916.19;;;13.21;42.44
3544;BME280;1786;52.870;9.578;2024-03-08T10:40:52;100916.75;;;13.39;42.58
3544;BME280;1786;52.870;9.578;2024-03-08T10:43:23;100914.84;;;13.28;42.62
3544;BME280;1786;52.870;9.578;2024-03-08T10:46:07;100920.44;;;12.98;43.58
3544;BME280;1786;52.870;9.578;2024-03-08T10:48:43;100917.91;;;12.56;43.72
3544;BME280;1786;52.870;9.578;2024-03-08T10:51:11;100904.75;;;12.55;44.40
3544;BME280;1786;52.870;9.578;2024-03-08T10:53:39;100910.91;;;13.08;43.34
3544;BME280;1786;52.870;9.578;2024-03-08T10:56:09;100895.19;;;13.18;43.36
3544;BME280;1786;52.870;9.578;2024-03-08T10:58:36;100892.56;;;13.44;43.32
3544;BME280;1786;52.870;9.578;2024-03-08T11:01:05;100899.97;;;13.51;43.38
3544;BME280;1786;52.870;9.578;2024-03-08T11:06:17;100880.84;;;12.95;43.76
3544;BME280;1786;52.870;9.578;2024-03-08T11:08:46;100891.53;;;13.70;43.25
3544;BME280;1786;52.870;9.578;2024-03-08T11:11:32;100883.28;;;13.49;43.22
3544;BME280;1786;52.870;9.578;2024-03-08T11:14:02;100889.03;;;13.30;42.71
3544;BME280;1786;52.870;9.578;2024-03-08T11:19:05;100873.84;;;13.95;42.33
3544;BME280;1786;52.870;9.578;2024-03-08T11:21:32;100871.44;;;14.51;42.38
3544;BME280;1786;52.870;9.578;2024-03-08T11:24:13;100871.41;;;13.92;42.76
3544;BME280;1786;52.870;9.578;2024-03-08T11:26:40;100871.78;;;13.74;42.09
3544;BME280;1786;52.870;9.578;2024-03-08T11:32:08;100858.03;;;14.88;40.82
3544;BME280;1786;52.870;9.578;2024-03-08T11:34:43;100855.75;;;14.24;42.00
3544;BME280;1786;52.870;9.578;2024-03-08T11:37:12;100848.16;;;13.82;42.36
3544;BME280;1786;52.870;9.578;2024-03-08T11:39:39;100844.31;;;13.87;42.63
3544;BME280;1786;52.870;9.578;2024-03-08T11:42:06;100840.66;;;13.76;42.39
3544;BME280;1786;52.870;9.578;2024-03-08T11:44:33;100830.34;;;14.44;42.50
3544;BME280;1786;52.870;9.578;2024-03-08T11:46:59;100839.81;;;14.24;42.34
3544;BME280;1786;52.870;9.578;2024-03-08T11:49:26;100825.31;;;14.63;42.41
3544;BME280;1786;52.870;9.578;2024-03-08T11:51:54;100821.72;;;14.40;42.20
3544;BME280;1786;52.870;9.578;2024-03-08T11:54:21;100811.25;;;14.50;42.94
3544;BME280;1786;52.870;9.578;2024-03-08T11:56:51;100823.97;;;14.22;42.81
3544;BME280;1786;52.870;9.578;2024-03-08T11:59:18;100802.00;;;13.96;43.64
3544;BME280;1786;52.870;9.578;2024-03-08T12:02:00;100789.44;;;13.98;43.55
3544;BME280;1786;52.870;9.578;2024-03-08T12:04:28;100798.97;;;14.01;42.55
3544;BME280;1786;52.870;9.578;2024-03-08T12:06:55;100787.69;;;14.10;42.93
3544;BME280;1786;52.870;9.578;2024-03-08T12:09:22;100778.69;;;14.24;42.68
3544;BME280;1786;52.870;9.578;2024-03-08T12:11:48;100780.34;;;13.90;43.61
3544;BME280;1786;52.870;9.578;2024-03-08T12:14:17;100774.03;;;13.79;43.88
3544;BME280;1786;52.870;9.578;2024-03-08T12:16:44;100776.31;;;14.08;43.03
3544;BME280;1786;52.870;9.578;2024-03-08T12:19:11;100767.41;;;14.20;43.86
3544;BME280;1786;52.870;9.578;2024-03-08T12:21:38;100772.91;;;15.10;42.45
3544;BME280;1786;52.870;9.578;2024-03-08T12:24:15;100767.31;;;14.91;42.20
3544;BME280;1786;52.870;9.578;2024-03-08T12:26:43;100755.47;;;14.95;42.46
3544;BME280;1786;52.870;9.578;2024-03-08T12:29:21;100759.34;;;15.02;42.51
3544;BME280;1786;52.870;9.578;2024-03-08T12:31:54;100763.03;;;15.56;41.76
3544;BME280;1786;52.870;9.578;2024-03-08T12:34:21;100762.56;;;14.14;42.60
3544;BME280;1786;52.870;9.578;2024-03-08T12:36:49;100758.09;;;13.79;43.53
3544;BME280;1786;52.870;9.578;2024-03-08T12:39:19;100736.84;;;14.15;43.31
3544;BME280;1786;52.870;9.578;2024-03-08T12:41:49;100754.66;;;13.66;43.53
3544;BME280;1786;52.870;9.578;2024-03-08T12:44:19;100743.00;;;14.15;43.20
3544;BME280;1786;52.870;9.578;2024-03-08T12:46:48;100723.97;;;13.62;44.05
3544;BME280;1786;52.870;9.578;2024-03-08T12:49:19;100717.81;;;14.32;43.12
3544;BME280;1786;52.870;9.578;2024-03-08T12:51:49;100705.00;;;15.27;41.67
3544;BME280;1786;52.870;9.578;2024-03-08T12:54:15;100709.91;;;15.43;42.48
3544;BME280;1786;52.870;9.578;2024-03-08T12:56:42;100705.88;;;15.05;42.40
3544;BME280;1786;52.870;9.578;2024-03-08T12:59:08;100699.47;;;15.08;42.61
3544;BME280;1786;52.870;9.578;2024-03-08T13:01:36;100692.28;;;15.31;42.04
3544;BME280;1786;52.870;9.578;2024-03-08T13:04:06;100700.78;;;14.46;42.23
3544;BME280;1786;52.870;9.578;2024-03-08T13:06:35;100695.63;;;14.78;42.29
3544;BME280;1786;52.870;9.578;2024-03-08T13:09:02;100693.09;;;14.77;42.82
3544;BME280;1786;52.870;9.578;2024-03-08T13:11:32;100678.09;;;14.64;43.86
3544;BME280;1786;52.870;9.578;2024-03-08T13:14:04;100668.22;;;15.21;42.54
3544;BME280;1786;52.870;9.578;2024-03-08T13:16:32;100666.84;;;14.95;42.25
3544;BME280;1786;52.870;9.578;2024-03-08T13:18:59;100654.06;;;14.55;42.82
3544;BME280;1786;52.870;9.578;2024-03-08T13:21:26;100656.56;;;14.56;43.48
3544;BME280;1786;52.870;9.578;2024-03-08T13:23:52;100654.13;;;15.09;42.59
3544;BME280;1786;52.870;9.578;2024-03-08T13:26:19;100660.19;;;14.78;43.31
3544;BME280;1786;52.870;9.578;2024-03-08T13:28:50;100654.63;;;14.81;43.07
3544;BME280;1786;52.870;9.578;2024-03-08T13:31:21;100649.78;;;14.97;42.32
3544;BME280;1786;52.870;9.578;2024-03-08T13:33:48;100644.47;;;14.97;42.35